GACFB EGPO-EGEI
Flight info
| Callsign | GACFB |
|---|---|
| Flight time | N/A |
| Altitude | 2800 |
| Route | 5810N00619W DCT 5719N00552W DCT 5717N00544W DCT 5715N00549W |
| Aircraft | C172/L-SDFG/C |
Departure
| Time | N/A |
|---|---|
| Airport | Stornoway Airport (EGPO) |
Arrival
| Time | 2026-04-29 18:08 |
|---|---|
| Airport | Broadford Airstrip (EGEI) |
| Time | Latitude | Longitude | Altitude | Speed | Heading |
|---|---|---|---|---|---|
| 2026-04-29 17:46 | 57.84932 | -6.14474 | 2999 ft | 123 kts | 164° |
| 2026-04-29 17:46 | 57.84108 | -6.14033 | 2999 ft | 123 kts | 164° |
| 2026-04-29 17:47 | 57.83281 | -6.13592 | 2999 ft | 123 kts | 164° |
| 2026-04-29 17:47 | 57.82458 | -6.13152 | 2999 ft | 123 kts | 164° |
| 2026-04-29 17:47 | 57.81628 | -6.12710 | 2999 ft | 123 kts | 164° |
| 2026-04-29 17:47 | 57.80807 | -6.12272 | 2999 ft | 123 kts | 164° |
| 2026-04-29 17:48 | 57.79975 | -6.11829 | 2999 ft | 123 kts | 164° |
| 2026-04-29 17:48 | 57.79145 | -6.11386 | 2999 ft | 123 kts | 164° |
| 2026-04-29 17:48 | 57.78317 | -6.10946 | 2999 ft | 123 kts | 164° |
| 2026-04-29 17:48 | 57.77496 | -6.10509 | 2999 ft | 123 kts | 164° |
| 2026-04-29 17:49 | 57.76670 | -6.10069 | 2999 ft | 123 kts | 164° |
| 2026-04-29 17:49 | 57.75837 | -6.09625 | 3000 ft | 123 kts | 164° |
| 2026-04-29 17:49 | 57.75014 | -6.09177 | 3000 ft | 123 kts | 163° |
| 2026-04-29 17:49 | 57.74194 | -6.08724 | 3000 ft | 123 kts | 163° |
| 2026-04-29 17:50 | 57.73371 | -6.08262 | 3000 ft | 123 kts | 163° |
| 2026-04-29 17:50 | 57.72548 | -6.07801 | 2999 ft | 123 kts | 163° |
| 2026-04-29 17:50 | 57.71723 | -6.07361 | 2999 ft | 123 kts | 164° |
| 2026-04-29 17:50 | 57.70884 | -6.06933 | 2999 ft | 123 kts | 165° |
| 2026-04-29 17:51 | 57.70053 | -6.06518 | 2999 ft | 123 kts | 165° |
| 2026-04-29 17:51 | 57.69224 | -6.06102 | 3000 ft | 123 kts | 165° |
| 2026-04-29 17:51 | 57.68395 | -6.05673 | 3000 ft | 123 kts | 164° |
| 2026-04-29 17:51 | 57.67567 | -6.05239 | 3000 ft | 123 kts | 164° |
| 2026-04-29 17:52 | 57.66750 | -6.04808 | 2999 ft | 123 kts | 164° |
| 2026-04-29 17:52 | 57.66194 | -6.04515 | 2999 ft | 123 kts | 164° |
| 2026-04-29 17:52 | 57.65094 | -6.03934 | 2999 ft | 123 kts | 164° |
| 2026-04-29 17:52 | 57.64266 | -6.03496 | 2999 ft | 123 kts | 164° |
| 2026-04-29 17:53 | 57.63435 | -6.03057 | 2999 ft | 123 kts | 164° |
| 2026-04-29 17:53 | 57.62608 | -6.02621 | 2999 ft | 123 kts | 164° |
| 2026-04-29 17:53 | 57.61781 | -6.02185 | 2999 ft | 123 kts | 164° |
| 2026-04-29 17:53 | 57.60954 | -6.01749 | 2999 ft | 123 kts | 164° |
| 2026-04-29 17:54 | 57.60127 | -6.01314 | 2999 ft | 123 kts | 164° |
| 2026-04-29 17:54 | 57.59304 | -6.00880 | 2999 ft | 123 kts | 164° |
| 2026-04-29 17:54 | 57.58480 | -6.00446 | 2999 ft | 123 kts | 164° |
| 2026-04-29 17:54 | 57.57647 | -6.00008 | 2999 ft | 123 kts | 164° |
| 2026-04-29 17:55 | 57.56815 | -5.99571 | 2999 ft | 123 kts | 164° |
| 2026-04-29 17:55 | 57.55991 | -5.99137 | 2999 ft | 123 kts | 164° |
| 2026-04-29 17:55 | 57.55168 | -5.98705 | 2999 ft | 123 kts | 164° |
| 2026-04-29 17:55 | 57.54342 | -5.98271 | 2999 ft | 123 kts | 164° |
| 2026-04-29 17:56 | 57.53506 | -5.97832 | 2999 ft | 123 kts | 164° |
| 2026-04-29 17:56 | 57.52689 | -5.97404 | 2999 ft | 123 kts | 164° |
| 2026-04-29 17:56 | 57.51858 | -5.96968 | 2999 ft | 123 kts | 164° |
| 2026-04-29 17:56 | 57.51024 | -5.96531 | 2999 ft | 123 kts | 164° |
| 2026-04-29 17:57 | 57.50203 | -5.96100 | 2999 ft | 123 kts | 164° |
| 2026-04-29 17:57 | 57.49377 | -5.95668 | 2999 ft | 123 kts | 164° |
| 2026-04-29 17:57 | 57.48541 | -5.95230 | 2999 ft | 123 kts | 164° |
| 2026-04-29 17:57 | 57.47999 | -5.94947 | 2999 ft | 123 kts | 164° |
| 2026-04-29 17:58 | 57.46888 | -5.94366 | 2999 ft | 123 kts | 164° |
| 2026-04-29 17:58 | 57.46063 | -5.93934 | 2999 ft | 123 kts | 164° |
| 2026-04-29 17:58 | 57.45239 | -5.93504 | 2999 ft | 123 kts | 164° |
| 2026-04-29 17:58 | 57.44404 | -5.93068 | 2999 ft | 123 kts | 164° |
| 2026-04-29 17:59 | 57.43576 | -5.92636 | 2999 ft | 123 kts | 164° |
| 2026-04-29 17:59 | 57.42752 | -5.92206 | 2999 ft | 123 kts | 164° |
| 2026-04-29 17:59 | 57.41931 | -5.91778 | 2999 ft | 123 kts | 164° |
| 2026-04-29 17:59 | 57.41100 | -5.91345 | 2999 ft | 123 kts | 164° |
| 2026-04-29 18:00 | 57.40264 | -5.90909 | 2999 ft | 123 kts | 164° |
| 2026-04-29 18:00 | 57.39442 | -5.90481 | 2999 ft | 123 kts | 164° |
| 2026-04-29 18:00 | 57.38620 | -5.90053 | 2999 ft | 123 kts | 164° |
| 2026-04-29 18:00 | 57.37773 | -5.89615 | 2845 ft | 125 kts | 164° |
| 2026-04-29 18:01 | 57.36944 | -5.89187 | 2671 ft | 124 kts | 164° |
| 2026-04-29 18:01 | 57.36151 | -5.88777 | 2491 ft | 115 kts | 164° |
| 2026-04-29 18:01 | 57.35395 | -5.88384 | 2315 ft | 112 kts | 164° |
| 2026-04-29 18:01 | 57.34644 | -5.87994 | 2139 ft | 112 kts | 164° |
| 2026-04-29 18:02 | 57.33897 | -5.87606 | 1965 ft | 111 kts | 164° |
| 2026-04-29 18:02 | 57.33178 | -5.87234 | 1784 ft | 100 kts | 164° |
| 2026-04-29 18:02 | 57.32555 | -5.86909 | 1705 ft | 90 kts | 164° |
| 2026-04-29 18:02 | 57.32002 | -5.86412 | 1700 ft | 89 kts | 138° |
| 2026-04-29 18:03 | 57.31599 | -5.85539 | 1700 ft | 90 kts | 125° |
| 2026-04-29 18:03 | 57.31265 | -5.84547 | 1700 ft | 90 kts | 120° |
| 2026-04-29 18:03 | 57.30959 | -5.83507 | 1546 ft | 90 kts | 117° |
| 2026-04-29 18:03 | 57.30696 | -5.82537 | 1396 ft | 83 kts | 116° |
| 2026-04-29 18:04 | 57.30447 | -5.81584 | 1218 ft | 81 kts | 115° |
| 2026-04-29 18:04 | 57.30209 | -5.80655 | 1113 ft | 79 kts | 115° |
| 2026-04-29 18:04 | 57.29974 | -5.79718 | 1101 ft | 79 kts | 114° |
| 2026-04-29 18:04 | 57.29745 | -5.78781 | 1100 ft | 80 kts | 111° |
| 2026-04-29 18:05 | 57.29559 | -5.77803 | 1100 ft | 81 kts | 109° |
| 2026-04-29 18:05 | 57.29364 | -5.76838 | 1109 ft | 80 kts | 111° |
| 2026-04-29 18:05 | 57.29155 | -5.75886 | 1101 ft | 80 kts | 112° |
| 2026-04-29 18:05 | 57.28926 | -5.74940 | 1098 ft | 81 kts | 120° |
| 2026-04-29 18:06 | 57.28481 | -5.74343 | 1095 ft | 81 kts | 164° |
| 2026-04-29 18:06 | 57.27919 | -5.74447 | 936 ft | 83 kts | 205° |
| 2026-04-29 18:06 | 57.27488 | -5.75138 | 772 ft | 88 kts | 234° |
| 2026-04-29 18:06 | 57.27266 | -5.76149 | 759 ft | 81 kts | 254° |
| 2026-04-29 18:07 | 57.27079 | -5.77133 | 713 ft | 81 kts | 245° |
| 2026-04-29 18:07 | 57.26857 | -5.78085 | 578 ft | 83 kts | 242° |
| 2026-04-29 18:07 | 57.26563 | -5.78906 | 467 ft | 68 kts | 232° |
| 2026-04-29 18:07 | 57.26299 | -5.79669 | 272 ft | 72 kts | 237° |
| 2026-04-29 18:08 | 57.26028 | -5.80414 | 140 ft | 70 kts | 240° |
| 2026-04-29 18:08 | 57.25835 | -5.81090 | 189 ft | 51 kts | 248° |
| 2026-04-29 18:08 | 57.25665 | -5.81669 | 121 ft | 50 kts | 241° |
| 2026-04-29 18:08 | 57.25494 | -5.82234 | 42 ft | 46 kts | 250° |
| 2026-04-29 18:09 | 57.25364 | -5.82625 | 29 ft | 10 kts | 242° |
| 2026-04-29 18:09 | 57.25359 | -5.82670 | 29 ft | 2 kts | 176° |
| 2026-04-29 18:09 | 57.25373 | -5.82530 | 27 ft | 6 kts | 152° |
| 2026-04-29 18:09 | 57.25341 | -5.82510 | 27 ft | 10 kts | 158° |
| 2026-04-29 18:10 | 57.25325 | -5.82498 | 28 ft | 0 kts | 78° |